Time;durP1;ratioP1;P1;durP2;ratioP2;P2;SDS_P1;SDS_P2;PMS_P1;PMS_P2;Temp;Humidity;BMP_temperature;BMP_pressure;BME280_temperature;BME280_humidity;BME280_pressure;Samples;Min_cycle;Max_cycle;Signal;HPM_P1;HPM_P2
2023/10/26 00:01:26;;;;;;;14.68;7.60;;;11.20;86.80;;;;;;5009096;28;20290;-79
2023/10/26 00:03:53;;;;;;;12.73;7.20;;;11.20;86.80;;;;;;5009767;28;20072;-78
2023/10/26 00:06:21;;;;;;;13.80;7.65;;;11.20;86.80;;;;;;5009812;28;20489;-79
2023/10/26 00:08:48;;;;;;;14.93;7.30;;;11.20;86.80;;;;;;5009096;28;20073;-79
2023/10/26 00:11:15;;;;;;;13.03;6.90;;;11.20;86.80;;;;;;4992765;28;20054;-79
2023/10/26 00:13:42;;;;;;;13.73;7.25;;;11.20;86.80;;;;;;5009596;28;20267;-79
2023/10/26 00:16:11;;;;;;;13.05;7.50;;;11.20;86.80;;;;;;4989968;28;20057;-79
2023/10/26 00:18:38;;;;;;;12.70;7.35;;;11.20;86.80;;;;;;4988433;28;20055;-79
2023/10/26 00:21:05;;;;;;;12.35;7.50;;;11.20;86.70;;;;;;5007506;28;20066;-79
2023/10/26 00:23:32;;;;;;;14.87;8.17;;;11.20;86.80;;;;;;5009342;28;20133;-79
2023/10/26 00:25:59;;;;;;;13.90;7.68;;;11.10;86.70;;;;;;5009117;28;20262;-79
2023/10/26 00:28:26;;;;;;;14.07;6.95;;;11.10;86.80;;;;;;5009344;28;20050;-79
2023/10/26 00:30:53;;;;;;;14.32;8.63;;;11.10;86.70;;;;;;5009162;28;20105;-79
2023/10/26 00:33:23;;;;;;;12.85;7.45;;;11.20;86.70;;;;;;5009002;28;20415;-79
2023/10/26 00:35:52;;;;;;;16.07;8.20;;;11.10;86.80;;;;;;5008558;28;20050;-79
2023/10/26 00:38:19;;;;;;;13.45;7.80;;;11.10;86.70;;;;;;5008959;28;20384;-79
2023/10/26 00:40:47;;;;;;;12.85;7.18;;;11.10;86.70;;;;;;4992418;28;20062;-79
2023/10/26 00:43:20;;;;;;;17.30;8.52;;;11.10;86.70;;;;;;4990375;28;20061;-79
2023/10/26 00:45:50;;;;;;;15.50;8.55;;;11.10;86.70;;;;;;5005726;28;20492;-79
2023/10/26 00:48:17;;;;;;;14.83;8.40;;;11.10;86.70;;;;;;5008591;28;20093;-79
2023/10/26 00:50:46;;;;;;;14.18;7.53;;;11.10;86.70;;;;;;5008497;28;20344;-79
2023/10/26 00:53:14;;;;;;;14.63;7.90;;;11.10;86.60;;;;;;4994993;28;20070;-79
2023/10/26 00:55:41;;;;;;;14.63;7.65;;;11.10;86.60;;;;;;4992383;28;20141;-79
2023/10/26 00:58:10;;;;;;;14.63;8.43;;;11.10;86.50;;;;;;5008373;28;20125;-79
2023/10/26 01:00:38;;;;;;;13.23;8.00;;;11.10;86.50;;;;;;5008260;28;20137;-79
2023/10/26 01:03:05;;;;;;;14.57;7.57;;;11.10;86.50;;;;;;5008984;28;20278;-80
2023/10/26 01:05:32;;;;;;;13.82;7.85;;;11.10;86.50;;;;;;5008829;28;20058;-79
2023/10/26 01:08:01;;;;;;;13.00;8.02;;;11.10;86.40;;;;;;5008664;28;20528;-79
2023/10/26 01:10:28;;;;;;;13.77;7.82;;;11.10;86.40;;;;;;4994122;28;20150;-79
2023/10/26 01:12:56;;;;;;;13.40;7.77;;;11.10;86.40;;;;;;4972646;28;20129;-79
2023/10/26 01:15:24;;;;;;;13.68;7.68;;;11.10;86.40;;;;;;5012348;28;20257;-79
2023/10/26 01:17:51;;;;;;;14.82;8.50;;;11.10;86.50;;;;;;5030023;28;20046;-79
2023/10/26 01:20:19;;;;;;;15.85;8.10;;;11.00;86.50;;;;;;4988791;28;20142;-79
2023/10/26 01:22:48;;;;;;;14.95;8.38;;;11.00;86.60;;;;;;4988538;28;20065;-81
2023/10/26 01:25:15;;;;;;;14.73;8.20;;;11.00;86.60;;;;;;5013963;28;20564;-79
2023/10/26 01:27:42;;;;;;;14.80;7.63;;;11.00;86.50;;;;;;5012647;28;20871;-79
2023/10/26 01:30:10;;;;;;;15.13;8.50;;;11.00;86.60;;;;;;4997334;28;20082;-80
2023/10/26 01:32:37;;;;;;;15.55;8.85;;;11.00;86.60;;;;;;5009632;28;20153;-79
2023/10/26 01:35:05;;;;;;;16.52;9.02;;;11.00;86.60;;;;;;5008255;28;20148;-79
2023/10/26 01:37:32;;;;;;;16.37;8.90;;;11.00;86.60;;;;;;5007897;28;20077;-79
2023/10/26 01:40:01;;;;;;;16.13;9.13;;;11.00;86.60;;;;;;5007730;28;20286;-80
2023/10/26 01:42:28;;;;;;;14.80;8.20;;;11.00;86.60;;;;;;5008203;28;20586;-79
2023/10/26 01:44:55;;;;;;;15.00;9.13;;;11.00;86.60;;;;;;4990906;28;20054;-79
2023/10/26 01:47:22;;;;;;;15.90;9.38;;;11.00;86.60;;;;;;5008131;28;20635;-80
2023/10/26 01:49:49;;;;;;;16.00;9.27;;;11.00;86.70;;;;;;5007851;28;20053;-80
2023/10/26 01:52:16;;;;;;;14.57;8.85;;;10.90;86.70;;;;;;5007372;28;20258;-79
2023/10/26 01:54:43;;;;;;;16.60;9.13;;;10.90;86.70;;;;;;5006295;28;20057;-79
2023/10/26 01:57:12;;;;;;;16.23;8.95;;;10.90;86.80;;;;;;4991433;28;20055;-80
2023/10/26 01:59:39;;;;;;;16.42;9.70;;;10.90;86.80;;;;;;4990895;28;20901;-79
2023/10/26 02:02:07;;;;;;;16.83;9.07;;;10.90;86.80;;;;;;5006784;28;20053;-80
2023/10/26 02:04:34;;;;;;;16.15;8.32;;;10.90;86.80;;;;;;4989091;28;20728;-79
2023/10/26 02:07:01;;;;;;;16.58;9.32;;;10.90;86.80;;;;;;4988017;28;21152;-79
2023/10/26 02:09:28;;;;;;;17.02;9.52;;;10.90;86.80;;;;;;4971646;28;20054;-79
2023/10/26 02:11:55;;;;;;;16.42;9.02;;;10.90;86.80;;;;;;4993190;28;20781;-79
2023/10/26 02:14:26;;;;;;;17.13;10.10;;;10.90;86.80;;;;;;5007783;28;20066;-80
2023/10/26 02:16:53;;;;;;;16.92;9.27;;;10.90;86.90;;;;;;4991509;28;20300;-79
2023/10/26 02:19:20;;;;;;;18.52;9.77;;;10.90;86.90;;;;;;4990662;28;20133;-79
2023/10/26 02:21:48;;;;;;;18.13;9.50;;;10.90;86.90;;;;;;4991109;28;20049;-79
2023/10/26 02:24:15;;;;;;;16.58;9.50;;;10.80;86.90;;;;;;5007444;28;20058;-79
2023/10/26 02:26:42;;;;;;;17.23;10.67;;;10.80;86.90;;;;;;4990726;28;20051;-79
2023/10/26 02:29:09;;;;;;;17.38;9.88;;;10.80;86.90;;;;;;4985338;28;20302;-79
2023/10/26 02:31:37;;;;;;;19.25;10.57;;;10.80;86.90;;;;;;4987321;28;20157;-80
2023/10/26 02:34:04;;;;;;;17.23;9.68;;;10.80;87.00;;;;;;4987525;28;20509;-79
2023/10/26 02:36:32;;;;;;;21.25;10.38;;;10.80;87.00;;;;;;4971536;28;20117;-79
2023/10/26 02:38:59;;;;;;;17.00;10.17;;;10.80;87.10;;;;;;5006066;28;20423;-79
2023/10/26 02:41:26;;;;;;;20.00;10.45;;;10.80;87.00;;;;;;4993734;28;20344;-79
2023/10/26 02:43:53;;;;;;;19.75;11.05;;;10.80;87.00;;;;;;5011035;28;20505;-80
2023/10/26 02:46:21;;;;;;;20.42;11.02;;;10.80;87.10;;;;;;4991147;28;20061;-79
2023/10/26 02:48:49;;;;;;;18.88;10.48;;;10.80;87.10;;;;;;4991117;28;21038;-79
2023/10/26 02:51:16;;;;;;;18.10;10.87;;;10.80;87.00;;;;;;4974716;28;20137;-79
2023/10/26 02:53:42;;;;;;;20.08;11.13;;;10.80;87.10;;;;;;4991090;28;20729;-80
2023/10/26 02:56:09;;;;;;;20.15;11.25;;;10.80;87.10;;;;;;5001748;28;20125;-79
2023/10/26 02:58:37;;;;;;;18.08;10.55;;;10.80;87.10;;;;;;4974701;28;20046;-79
2023/10/26 03:01:04;;;;;;;18.92;10.68;;;10.80;87.10;;;;;;4987695;28;20054;-80
2023/10/26 03:03:31;;;;;;;17.77;10.63;;;10.80;87.10;;;;;;4994304;28;20090;-79
2023/10/26 03:06:00;;;;;;;21.02;11.18;;;10.80;87.20;;;;;;5010459;28;20384;-79
2023/10/26 03:08:27;;;;;;;21.73;11.50;;;10.80;87.10;;;;;;5010288;28;20133;-80
2023/10/26 03:10:54;;;;;;;21.58;11.88;;;10.80;87.20;;;;;;4990629;28;20050;-80
2023/10/26 03:13:21;;;;;;;19.52;10.48;;;10.70;87.20;;;;;;4992238;28;20055;-82
2023/10/26 03:15:49;;;;;;;19.20;11.37;;;10.70;87.30;;;;;;4990495;28;20050;-79
2023/10/26 03:18:16;;;;;;;20.13;11.68;;;10.70;87.40;;;;;;4990856;28;20286;-80
2023/10/26 03:20:43;;;;;;;20.25;10.73;;;10.70;87.30;;;;;;4992439;28;20062;-81
2023/10/26 03:23:12;;;;;;;22.50;11.68;;;10.70;87.30;;;;;;5010039;28;20050;-79
2023/10/26 03:25:39;;;;;;;22.27;11.90;;;10.70;87.40;;;;;;4993579;28;20039;-79
2023/10/26 03:28:06;;;;;;;22.33;11.73;;;10.70;87.50;;;;;;4993683;28;20078;-80
2023/10/26 03:30:34;;;;;;;21.67;11.80;;;10.70;87.50;;;;;;5009110;28;20254;-79
2023/10/26 03:33:01;;;;;;;22.55;12.45;;;10.70;87.50;;;;;;4993297;28;20074;-79
2023/10/26 03:35:28;;;;;;;20.50;11.85;;;10.70;87.50;;;;;;5010006;28;20257;-80
2023/10/26 03:37:55;;;;;;;23.23;12.52;;;10.70;87.50;;;;;;5011440;28;20153;-80
2023/10/26 03:40:24;;;;;;;21.30;11.77;;;10.70;87.60;;;;;;5009595;28;20054;-80
2023/10/26 03:42:51;;;;;;;24.17;13.13;;;10.70;87.60;;;;;;4993465;28;20296;-79
2023/10/26 03:45:18;;;;;;;23.70;12.80;;;10.70;87.60;;;;;;4989961;28;20483;-79
2023/10/26 03:47:45;;;;;;;21.95;12.63;;;10.70;87.60;;;;;;4978455;28;20094;-79
2023/10/26 03:50:13;;;;;;;21.95;12.60;;;10.70;87.60;;;;;;4993597;28;20078;-80
2023/10/26 03:52:40;;;;;;;23.90;12.80;;;10.60;87.60;;;;;;5008975;28;20423;-79
2023/10/26 03:55:08;;;;;;;22.38;11.80;;;10.60;87.60;;;;;;4993149;28;20278;-79
2023/10/26 03:57:36;;;;;;;28.20;13.02;;;10.60;87.60;;;;;;4992692;28;20057;-80
2023/10/26 04:00:04;;;;;;;22.90;12.23;;;10.60;87.60;;;;;;4992751;28;20129;-80
2023/10/26 04:02:38;;;;;;;22.98;12.63;;;10.60;87.60;;;;;;5009160;28;20051;-79
2023/10/26 04:05:06;;;;;;;23.20;12.80;;;10.60;87.60;;;;;;5010112;28;20600;-79
2023/10/26 04:07:33;;;;;;;24.77;12.57;;;10.60;87.70;;;;;;5009509;28;20301;-80
2023/10/26 04:10:28;;;;;;;24.52;12.00;;;10.60;87.80;;;;;;5011009;28;20546;-80
2023/10/26 04:12:57;;;;;;;23.33;12.32;;;10.60;87.80;;;;;;4992679;28;20125;-79
2023/10/26 04:15:24;;;;;;;25.33;12.90;;;10.60;87.70;;;;;;4992922;28;20590;-79
2023/10/26 04:17:52;;;;;;;25.30;13.67;;;10.60;87.70;;;;;;5009122;28;20061;-80
2023/10/26 04:20:20;;;;;;;23.40;13.05;;;10.60;87.80;;;;;;4992960;28;20259;-80
2023/10/26 04:22:47;;;;;;;23.40;12.82;;;10.60;87.80;;;;;;5009715;28;20164;-79
2023/10/26 04:25:15;;;;;;;23.20;12.73;;;10.60;87.80;;;;;;5009544;28;20065;-79
2023/10/26 04:27:41;;;;;;;23.33;12.82;;;10.60;87.80;;;;;;4992385;28;20054;-79
2023/10/26 04:30:11;;;;;;;24.77;13.30;;;10.60;87.80;;;;;;5009618;28;20065;-79
2023/10/26 04:32:41;;;;;;;24.23;12.00;;;10.60;87.80;;;;;;5021120;28;20344;-80
2023/10/26 04:35:09;;;;;;;24.15;13.07;;;10.60;87.80;;;;;;5009101;28;20046;-80
2023/10/26 04:37:36;;;;;;;25.92;13.63;;;10.60;87.80;;;;;;5008945;28;20050;-79
2023/10/26 04:40:07;;;;;;;24.80;13.45;;;10.60;87.80;;;;;;5009986;28;20965;-80
2023/10/26 04:42:35;;;;;;;25.27;13.67;;;10.60;87.80;;;;;;4992850;28;20050;-79
2023/10/26 04:45:02;;;;;;;26.77;13.60;;;10.60;87.80;;;;;;5009118;28;20278;-79
2023/10/26 04:47:31;;;;;;;26.00;14.05;;;10.60;87.80;;;;;;5008722;28;20052;-80
2023/10/26 04:49:58;;;;;;;25.63;13.40;;;10.60;87.80;;;;;;5008867;28;20054;-80
2023/10/26 04:52:25;;;;;;;26.15;13.75;;;10.60;87.80;;;;;;5008355;28;20057;-80
2023/10/26 04:54:52;;;;;;;24.67;13.10;;;10.60;87.80;;;;;;5008707;28;20129;-80
2023/10/26 04:57:19;;;;;;;25.55;14.25;;;10.60;87.80;;;;;;5008582;28;20927;-79
2023/10/26 04:59:46;;;;;;;26.95;14.23;;;10.60;87.80;;;;;;5007957;28;20076;-79
2023/10/26 05:02:14;;;;;;;26.85;14.00;;;10.60;87.80;;;;;;5008622;28;21116;-79
2023/10/26 05:04:42;;;;;;;26.05;13.75;;;10.60;87.80;;;;;;5008378;28;20136;-80
2023/10/26 05:07:09;;;;;;;22.30;12.83;;;10.60;87.80;;;;;;5008721;28;20061;-80
2023/10/26 05:09:37;;;;;;;24.98;13.00;;;10.60;87.80;;;;;;4992357;28;20258;-80
2023/10/26 05:12:04;;;;;;;25.45;13.43;;;10.60;87.80;;;;;;5008613;28;20050;-80
2023/10/26 05:14:32;;;;;;;25.65;13.93;;;10.70;87.70;;;;;;5008402;28;20046;-79
2023/10/26 05:16:59;;;;;;;23.13;12.57;;;10.70;87.70;;;;;;5007596;28;20068;-79
2023/10/26 05:19:26;;;;;;;23.30;12.60;;;10.60;87.70;;;;;;5008489;28;20061;-79
2023/10/26 05:21:54;;;;;;;21.67;12.57;;;10.70;87.60;;;;;;4992160;28;20748;-79
2023/10/26 05:24:21;;;;;;;22.40;11.68;;;10.60;87.50;;;;;;4992188;28;20416;-80
2023/10/26 05:26:49;;;;;;;21.30;11.55;;;10.70;87.50;;;;;;5010017;28;20055;-79
2023/10/26 05:29:17;;;;;;;23.13;12.45;;;10.60;87.30;;;;;;5009598;28;20065;-79
2023/10/26 05:31:45;;;;;;;19.83;11.43;;;10.60;87.30;;;;;;5008085;28;20144;-80
2023/10/26 05:34:12;;;;;;;21.67;11.85;;;10.60;87.20;;;;;;5007701;28;20281;-79
2023/10/26 05:36:40;;;;;;;20.13;11.25;;;10.60;87.20;;;;;;5008403;28;20054;-79
2023/10/26 05:39:08;;;;;;;21.38;11.75;;;10.60;87.10;;;;;;5008075;28;20129;-80
2023/10/26 05:41:35;;;;;;;17.70;8.52;;;10.60;87.00;;;;;;4991741;28;20249;-79
2023/10/26 05:44:02;;;;;;;17.47;9.47;;;10.60;86.90;;;;;;5009299;28;20360;-79
2023/10/26 05:46:29;;;;;;;18.45;10.15;;;10.60;86.60;;;;;;5008216;28;20258;-79
2023/10/26 05:48:57;;;;;;;25.35;8.70;;;10.60;86.60;;;;;;5008151;28;20552;-80
2023/10/26 05:51:25;;;;;;;15.38;7.50;;;10.60;86.60;;;;;;5012443;28;20492;-79
2023/10/26 05:53:52;;;;;;;13.45;7.93;;;10.50;86.50;;;;;;5007798;28;20042;-79
2023/10/26 05:56:20;;;;;;;12.77;6.83;;;10.50;86.40;;;;;;5007695;28;20125;-80
2023/10/26 05:58:50;;;;;;;14.25;7.90;;;10.50;86.30;;;;;;5007827;28;20748;-80
2023/10/26 06:01:17;;;;;;;14.38;8.55;;;10.50;86.30;;;;;;5006944;28;20202;-80
2023/10/26 06:03:44;;;;;;;16.08;9.10;;;10.50;86.20;;;;;;5007387;28;20039;-79
2023/10/26 06:06:12;;;;;;;15.55;8.55;;;10.40;86.10;;;;;;5009296;28;20101;-79
2023/10/26 06:08:42;;;;;;;14.10;7.90;;;10.40;86.00;;;;;;5007118;28;20133;-79
2023/10/26 06:11:10;;;;;;;16.25;8.85;;;10.40;86.00;;;;;;4989619;28;20278;-80
2023/10/26 06:13:38;;;;;;;16.50;9.18;;;10.40;86.00;;;;;;5006935;28;20050;-80
2023/10/26 06:16:06;;;;;;;15.38;8.82;;;10.40;86.00;;;;;;5003561;28;20165;-80
2023/10/26 06:18:33;;;;;;;16.30;8.52;;;10.30;86.00;;;;;;5007002;28;20088;-80
2023/10/26 06:21:02;;;;;;;13.23;7.73;;;10.30;86.00;;;;;;5005471;28;20063;-80
2023/10/26 06:23:29;;;;;;;12.25;7.32;;;10.30;86.00;;;;;;5005517;28;20254;-80
2023/10/26 06:26:00;;;;;;;13.45;7.78;;;10.30;86.00;;;;;;4989041;28;20062;-81
2023/10/26 06:28:30;;;;;;;15.40;8.88;;;10.30;86.00;;;;;;5005204;28;20054;-80
2023/10/26 06:31:11;;;;;;;14.75;8.18;;;10.30;85.90;;;;;;4983212;28;20082;-80
2023/10/26 06:33:38;;;;;;;14.60;7.83;;;10.30;85.90;;;;;;4989728;28;20051;-80
2023/10/26 06:36:08;;;;;;;15.90;9.18;;;10.30;85.90;;;;;;5006499;28;20278;-80
2023/10/26 06:38:35;;;;;;;18.35;10.40;;;10.30;85.90;;;;;;5006698;28;21075;-80
2023/10/26 06:41:02;;;;;;;19.67;9.70;;;10.30;85.80;;;;;;5005482;28;20050;-80
2023/10/26 06:43:30;;;;;;;18.05;9.73;;;10.30;85.80;;;;;;5006842;28;20047;-80
2023/10/26 06:45:57;;;;;;;16.77;9.43;;;10.30;85.80;;;;;;4985226;28;20862;-80
2023/10/26 06:48:26;;;;;;;20.95;10.98;;;10.30;85.80;;;;;;5003186;28;21279;-80
2023/10/26 06:50:59;;;;;;;20.90;11.00;;;10.20;85.80;;;;;;5005410;28;20097;-79
2023/10/26 06:53:28;;;;;;;22.15;11.10;;;10.20;85.80;;;;;;4999892;28;20155;-79
2023/10/26 06:55:55;;;;;;;24.08;12.57;;;10.30;85.80;;;;;;4990209;28;20059;-78
2023/10/26 06:58:22;;;;;;;22.87;12.70;;;10.20;85.90;;;;;;5006684;28;20139;-80
2023/10/26 07:00:49;;;;;;;25.05;13.50;;;10.30;85.90;;;;;;5007204;28;20285;-80
2023/10/26 07:03:16;;;;;;;24.40;13.02;;;10.20;86.00;;;;;;5002633;28;20517;-79
2023/10/26 07:05:47;;;;;;;26.30;13.43;;;10.20;86.10;;;;;;4986388;28;20154;-80
2023/10/26 07:08:14;;;;;;;26.95;13.80;;;10.20;86.10;;;;;;4988755;28;20055;-81
2023/10/26 07:10:41;;;;;;;31.03;14.87;;;10.20;86.20;;;;;;4999565;28;20489;-79
2023/10/26 07:13:09;;;;;;;32.60;15.15;;;10.20;86.40;;;;;;4995512;28;20327;-80
2023/10/26 07:15:36;;;;;;;27.08;14.30;;;10.20;86.50;;;;;;5005048;28;20512;-80
2023/10/26 07:18:04;;;;;;;22.50;10.98;;;10.20;86.60;;;;;;5005892;28;20051;-77
2023/10/26 07:20:31;;;;;;;22.20;10.75;;;10.20;86.60;;;;;;5009006;28;20140;-80
2023/10/26 07:23:00;;;;;;;28.73;14.20;;;10.20;86.70;;;;;;5005210;28;20165;-83
2023/10/26 07:25:27;;;;;;;30.20;14.93;;;10.20;86.80;;;;;;4989936;28;20294;-77
2023/10/26 07:27:54;;;;;;;29.33;14.35;;;10.30;86.90;;;;;;5006510;28;20424;-78
2023/10/26 07:30:22;;;;;;;28.65;13.98;;;10.30;87.00;;;;;;5009552;28;20117;-81
2023/10/26 07:32:49;;;;;;;30.58;15.95;;;10.30;87.10;;;;;;5008335;28;20678;-81
2023/10/26 07:35:16;;;;;;;29.47;15.30;;;10.30;87.20;;;;;;5008228;28;20057;-79
2023/10/26 07:37:43;;;;;;;29.38;14.90;;;10.30;87.20;;;;;;5009346;28;20269;-80
2023/10/26 07:40:13;;;;;;;29.45;14.60;;;10.30;87.20;;;;;;5010003;28;20125;-78
2023/10/26 07:42:40;;;;;;;28.33;14.25;;;10.30;87.30;;;;;;5009539;28;20093;-76
2023/10/26 07:45:08;;;;;;;28.25;15.15;;;10.30;87.40;;;;;;5010666;28;20825;-77
2023/10/26 07:47:35;;;;;;;30.50;14.70;;;10.30;87.40;;;;;;5008429;28;20050;-77
2023/10/26 07:50:03;;;;;;;28.50;15.20;;;10.40;87.50;;;;;;5009564;28;20334;-78
2023/10/26 07:52:30;;;;;;;29.90;15.05;;;10.40;87.60;;;;;;4991528;28;20080;-78
2023/10/26 07:54:58;;;;;;;29.70;15.73;;;10.40;87.70;;;;;;5007972;28;20089;-78
2023/10/26 07:57:26;;;;;;;31.33;15.57;;;10.40;87.80;;;;;;5008258;28;20908;-78
2023/10/26 07:59:53;;;;;;;29.80;15.40;;;10.40;87.80;;;;;;4991587;28;20057;-77
2023/10/26 08:02:20;;;;;;;28.70;15.48;;;10.50;87.80;;;;;;5007178;28;20286;-77
2023/10/26 08:04:49;;;;;;;32.20;15.70;;;10.50;87.90;;;;;;5007191;28;20893;-77
2023/10/26 08:07:16;;;;;;;32.33;15.13;;;10.50;88.00;;;;;;5008884;28;20109;-79
2023/10/26 08:09:43;;;;;;;33.30;16.45;;;10.50;88.00;;;;;;5010806;28;20050;-78
2023/10/26 08:12:11;;;;;;;31.77;15.93;;;10.50;88.00;;;;;;5009115;28;20058;-77
2023/10/26 08:14:40;;;;;;;32.28;15.73;;;10.60;88.10;;;;;;5007897;28;20368;-77
2023/10/26 08:17:07;;;;;;;33.33;16.75;;;10.60;88.10;;;;;;5009765;28;20129;-77
2023/10/26 08:19:34;;;;;;;32.05;15.52;;;10.60;88.20;;;;;;5008990;28;20050;-78
2023/10/26 08:22:01;;;;;;;33.80;16.40;;;10.60;88.20;;;;;;5008122;28;20117;-77
2023/10/26 08:24:28;;;;;;;35.17;16.77;;;10.60;88.30;;;;;;4992103;28;20046;-76
2023/10/26 08:26:55;;;;;;;30.85;16.00;;;10.60;88.30;;;;;;5009901;28;20284;-78
2023/10/26 08:29:24;;;;;;;30.88;15.55;;;10.70;88.30;;;;;;4991086;28;20085;-79
2023/10/26 08:31:52;;;;;;;28.85;15.43;;;10.70;88.30;;;;;;5008425;28;20118;-80
2023/10/26 08:34:19;;;;;;;30.98;15.70;;;10.70;88.30;;;;;;5007562;28;20133;-80
2023/10/26 08:36:47;;;;;;;27.73;14.13;;;10.70;88.40;;;;;;5007037;28;20061;-81
2023/10/26 08:39:14;;;;;;;29.17;14.50;;;10.70;88.50;;;;;;5006475;28;20830;-80
2023/10/26 08:41:50;;;;;;;31.75;16.40;;;10.80;88.50;;;;;;5006376;28;20062;-80
2023/10/26 08:44:18;;;;;;;30.33;15.68;;;10.80;88.50;;;;;;4991366;28;20089;-80
2023/10/26 08:46:48;;;;;;;31.88;15.85;;;10.80;88.50;;;;;;4990445;28;20046;-81
2023/10/26 08:49:17;;;;;;;29.90;15.37;;;10.80;88.50;;;;;;4991182;28;20459;-81
2023/10/26 08:51:44;;;;;;;30.25;15.35;;;10.80;88.60;;;;;;5008755;28;20345;-82
2023/10/26 08:54:11;;;;;;;29.70;15.45;;;10.90;88.50;;;;;;4991340;28;20165;-82
2023/10/26 08:56:38;;;;;;;33.38;16.45;;;10.90;88.60;;;;;;5007914;28;20065;-79
2023/10/26 08:59:05;;;;;;;30.15;15.82;;;10.90;88.60;;;;;;5007225;28;20049;-79
2023/10/26 09:01:32;;;;;;;29.20;15.37;;;10.90;88.60;;;;;;4990065;28;20061;-79
2023/10/26 09:04:08;;;;;;;30.90;15.23;;;10.90;88.70;;;;;;5006852;28;21096;-79
2023/10/26 09:06:45;;;;;;;28.50;14.68;;;11.00;88.80;;;;;;4990116;28;20053;-79
2023/10/26 09:09:12;;;;;;;25.75;13.88;;;11.00;88.70;;;;;;5006667;28;20058;-79
2023/10/26 09:11:39;;;;;;;27.95;14.02;;;11.00;88.70;;;;;;5006616;28;20046;-79
2023/10/26 09:14:13;;;;;;;26.47;13.60;;;11.00;88.70;;;;;;5007862;23;20084;-80
2023/10/26 09:16:43;;;;;;;26.75;13.40;;;11.00;88.70;;;;;;5024236;28;20266;-80
2023/10/26 09:19:10;;;;;;;26.17;13.63;;;11.10;88.70;;;;;;4987626;28;20496;-80
2023/10/26 09:21:51;;;;;;;28.85;14.32;;;11.10;88.70;;;;;;4980764;28;20542;-80
2023/10/26 09:24:20;;;;;;;28.80;15.23;;;11.10;88.70;;;;;;4992658;28;20054;-82
2023/10/26 09:26:48;;;;;;;26.60;13.10;;;11.10;88.70;;;;;;4989498;28;20500;-79
2023/10/26 09:29:14;;;;;;;28.58;14.45;;;11.10;88.70;;;;;;5007296;28;20715;-79
2023/10/26 09:31:53;;;;;;;26.40;13.43;;;11.10;88.80;;;;;;5008130;28;20051;-78
2023/10/26 09:34:23;;;;;;;27.50;12.85;;;11.10;88.90;;;;;;4989693;28;20053;-79
2023/10/26 09:37:02;;;;;;;26.48;13.73;;;11.10;89.00;;;;;;5013464;28;20060;-79
2023/10/26 09:39:31;;;;;;;25.03;12.90;;;11.20;89.00;;;;;;5026021;28;20555;-79
2023/10/26 09:41:59;;;;;;;26.08;13.05;;;11.20;89.00;;;;;;5041457;28;20261;-78
2023/10/26 09:44:27;;;;;;;25.92;12.50;;;11.30;88.90;;;;;;5004116;28;20492;-79
2023/10/26 09:46:54;;;;;;;21.55;12.15;;;11.30;88.90;;;;;;5014385;28;20562;-76
2023/10/26 09:49:22;;;;;;;24.52;12.80;;;11.30;88.70;;;;;;5042900;28;20116;-76
2023/10/26 09:51:49;;;;;;;22.50;12.07;;;11.30;88.70;;;;;;5024544;28;20495;-76
2023/10/26 09:54:19;;;;;;;26.48;12.63;;;11.30;88.70;;;;;;5009339;28;20277;-78
2023/10/26 09:56:50;;;;;;;25.52;12.23;;;11.30;88.60;;;;;;4985441;28;20167;-78
2023/10/26 09:59:18;;;;;;;24.27;13.50;;;11.30;88.50;;;;;;4986061;28;20106;-77
2023/10/26 10:01:45;;;;;;;22.58;12.10;;;11.30;88.50;;;;;;4985541;28;20043;-77
2023/10/26 10:04:13;;;;;;;22.63;11.27;;;11.40;88.50;;;;;;5002514;28;20535;-77
2023/10/26 10:06:49;;;;;;;25.75;12.73;;;11.40;88.50;;;;;;5007878;28;20258;-76
2023/10/26 10:09:19;;;;;;;22.80;11.88;;;11.40;88.50;;;;;;4990705;28;20632;-76
2023/10/26 10:11:47;;;;;;;21.25;11.45;;;11.40;88.40;;;;;;5006708;28;20154;-76
2023/10/26 10:14:51;;;;;;;25.27;11.95;;;11.40;88.40;;;;;;5006553;28;20054;-77
2023/10/26 10:17:19;;;;;;;25.20;11.70;;;11.40;88.40;;;;;;5007192;28;20610;-78
2023/10/26 10:19:48;;;;;;;22.17;11.70;;;11.40;88.30;;;;;;5006199;28;20282;-75
2023/10/26 10:22:46;;;;;;;21.35;11.35;;;11.50;88.30;;;;;;5020724;28;20205;-79
2023/10/26 10:25:17;;;;;;;22.25;11.32;;;11.50;88.30;;;;;;4990740;28;20555;-76
2023/10/26 10:28:12;;;;;;;21.48;11.30;;;11.50;88.20;;;;;;5006833;28;20058;-76
2023/10/26 10:30:50;;;;;;;24.20;12.50;;;11.50;88.20;;;;;;5005905;28;20050;-78
2023/10/26 10:33:23;;;;;;;22.83;11.65;;;11.50;88.20;;;;;;5012311;28;20276;-78
2023/10/26 10:35:59;;;;;;;22.77;11.50;;;11.50;88.20;;;;;;5024235;28;20468;-78
2023/10/26 10:38:26;;;;;;;19.67;10.68;;;11.60;88.20;;;;;;5004503;28;20061;-81
2023/10/26 10:41:12;;;;;;;19.15;10.65;;;11.60;88.00;;;;;;5022306;28;20460;-85
2023/10/26 10:43:43;;;;;;;19.97;10.40;;;11.60;88.00;;;;;;5005143;28;20057;-78
2023/10/26 10:46:12;;;;;;;19.05;10.57;;;11.70;87.90;;;;;;5007803;28;20655;-81
2023/10/26 10:48:55;;;;;;;22.08;10.98;;;11.70;87.70;;;;;;4990877;28;20058;-82
2023/10/26 10:51:23;;;;;;;21.25;11.45;;;11.70;87.70;;;;;;5005804;28;20050;-79
2023/10/26 10:53:51;;;;;;;20.85;11.40;;;11.70;87.60;;;;;;5013599;28;20053;-79
2023/10/26 10:56:20;;;;;;;19.10;10.43;;;11.70;87.70;;;;;;5029080;28;20054;-84
2023/10/26 10:58:47;;;;;;;20.30;10.60;;;11.70;87.70;;;;;;5025863;28;20266;-79
2023/10/26 11:01:19;;;;;;;20.52;11.02;;;11.70;87.70;;;;;;5007848;28;20050;-80
2023/10/26 11:03:47;;;;;;;18.90;10.15;;;11.70;87.80;;;;;;5009699;28;20046;-80
2023/10/26 11:06:16;;;;;;;20.58;10.07;;;11.80;87.80;;;;;;5026055;28;20137;-79
2023/10/26 11:08:43;;;;;;;20.23;10.90;;;11.90;87.80;;;;;;5011539;28;20050;-86
2023/10/26 11:11:26;;;;;;;19.95;10.43;;;11.90;87.90;;;;;;4993210;28;20258;-82
2023/10/26 11:14:08;;;;;;;19.13;10.23;;;11.90;88.00;;;;;;4992978;28;21027;-85
2023/10/26 11:16:37;;;;;;;19.55;10.05;;;12.00;88.10;;;;;;5009316;28;20054;-83
2023/10/26 11:19:05;;;;;;;21.45;9.82;;;12.00;88.20;;;;;;5009884;28;20104;-85
2023/10/26 11:21:32;;;;;;;18.80;10.33;;;12.10;88.20;;;;;;4994720;28;20156;-87
2023/10/26 11:24:00;;;;;;;17.45;9.52;;;12.10;88.00;;;;;;4994902;28;20297;-85
2023/10/26 11:26:30;;;;;;;19.38;9.80;;;12.20;88.00;;;;;;5010532;28;20058;-89
2023/10/26 11:29:00;;;;;;;18.05;10.07;;;12.30;88.00;;;;;;5015882;28;20057;-89
2023/10/26 11:31:41;;;;;;;17.33;9.73;;;12.30;87.80;;;;;;4996214;28;20242;-88
2023/10/26 11:34:10;;;;;;;18.40;9.10;;;12.40;87.80;;;;;;5001936;28;20061;-88
2023/10/26 11:36:39;;;;;;;16.65;8.85;;;12.50;87.50;;;;;;4995820;28;20772;-89
2023/10/26 11:39:06;;;;;;;16.40;9.50;;;12.50;87.50;;;;;;5010359;28;20084;-86
2023/10/26 11:41:35;;;;;;;18.45;10.40;;;12.50;87.20;;;;;;4990020;28;20050;-87
2023/10/26 11:44:27;;;;;;;19.38;10.02;;;12.60;87.20;;;;;;4993408;28;20051;-88
2023/10/26 11:46:58;;;;;;;17.83;10.07;;;12.70;87.30;;;;;;4992325;28;20061;-87
2023/10/26 11:49:37;;;;;;;18.70;10.07;;;12.80;87.30;;;;;;5006976;28;20278;-88
2023/10/26 11:52:08;;;;;;;18.98;10.23;;;12.80;87.20;;;;;;4993334;28;20142;-87
2023/10/26 11:54:35;;;;;;;18.30;9.75;;;12.90;87.20;;;;;;4992899;28;20919;-87
2023/10/26 11:57:08;;;;;;;18.55;9.90;;;13.00;87.10;;;;;;5000642;28;20075;-90
2023/10/26 11:59:37;;;;;;;18.50;9.70;;;13.10;87.00;;;;;;5003958;28;20055;-89
2023/10/26 12:02:07;;;;;;;16.80;9.00;;;13.10;86.90;;;;;;4977682;28;20696;-87
2023/10/26 12:04:36;;;;;;;15.38;8.95;;;13.20;86.60;;;;;;5030874;28;20058;-89
2023/10/26 12:07:09;;;;;;;18.60;9.65;;;13.30;86.50;;;;;;5026004;28;20058;-88
2023/10/26 12:09:48;;;;;;;16.90;9.45;;;13.40;86.40;;;;;;5014333;28;20058;-90
2023/10/26 12:12:19;;;;;;;19.87;9.90;;;13.50;86.30;;;;;;5038064;28;20050;-90
2023/10/26 12:15:02;;;;;;;17.02;9.93;;;13.60;86.20;;;;;;5001628;28;20784;-91
2023/10/26 12:17:30;;;;;;;16.98;9.27;;;13.70;86.00;;;;;;4981418;28;20051;-89
2023/10/26 12:19:58;;;;;;;17.98;9.63;;;13.90;85.90;;;;;;4995939;28;20153;-90
2023/10/26 12:22:31;;;;;;;17.20;9.90;;;13.90;85.70;;;;;;4999151;28;20058;-88
2023/10/26 12:25:04;;;;;;;19.73;10.83;;;14.00;85.60;;;;;;4993732;28;20051;-90
2023/10/26 12:27:33;;;;;;;17.48;9.32;;;14.10;85.30;;;;;;4993475;28;20301;-90
2023/10/26 12:30:02;;;;;;;18.25;10.35;;;14.20;84.80;;;;;;4987848;28;20047;-88
2023/10/26 12:32:30;;;;;;;17.85;10.52;;;14.30;84.50;;;;;;5045576;28;20141;-87
2023/10/26 12:34:57;;;;;;;17.15;10.20;;;14.40;84.00;;;;;;5012605;28;20065;-88
2023/10/26 12:37:25;;;;;;;17.77;9.73;;;14.40;83.60;;;;;;5009050;28;20057;-88
2023/10/26 12:39:53;;;;;;;16.58;8.90;;;14.50;83.30;;;;;;5009509;28;20258;-88